Time;durP1;ratioP1;P1;durP2;ratioP2;P2;SDS_P1;SDS_P2;PMS_P1;PMS_P2;Temp;Humidity;BMP_temperature;BMP_pressure;BME280_temperature;BME280_humidity;BME280_pressure;Samples;Min_cycle;Max_cycle;Signal;HPM_P1;HPM_P2
2023/02/03 00:00:23;;;;;;;1.95;1.00;;;;;;;7.90;100.00;101804.91;2112037;28;20051;-85
2023/02/03 00:01:45;;;;;;;1.33;1.00;;;;;;;7.93;100.00;101799.78;2107778;28;20096;-83
2023/02/03 00:03:08;;;;;;;1.90;0.95;;;;;;;7.96;100.00;101805.16;2095357;28;20048;-84
2023/02/03 00:04:31;;;;;;;1.77;0.90;;;;;;;7.99;100.00;101807.94;2096620;28;20052;-84
2023/02/03 00:05:54;;;;;;;2.28;0.90;;;;;;;8.00;100.00;101793.97;2095156;28;20567;-84
2023/02/03 00:07:16;;;;;;;2.08;1.00;;;;;;;8.00;100.00;101793.97;2107100;28;20035;-84
2023/02/03 00:08:37;;;;;;;2.45;1.35;;;;;;;7.98;100.00;101799.97;2105401;28;20056;-84
2023/02/03 00:10:00;;;;;;;3.53;1.48;;;;;;;7.98;100.00;101795.63;2106060;28;20040;-83
2023/02/03 00:11:21;;;;;;;4.20;1.83;;;;;;;7.99;100.00;101799.16;2104544;28;20062;-83
2023/02/03 00:12:43;;;;;;;2.97;1.67;;;;;;;8.01;100.00;101789.56;2103392;28;20079;-83
2023/02/03 00:14:06;;;;;;;2.83;1.25;;;;;;;8.05;100.00;101794.16;2102215;28;20037;-81
2023/02/03 00:15:28;;;;;;;2.72;0.95;;;;;;;8.07;100.00;101788.97;2103772;28;20134;-81
2023/02/03 00:16:50;;;;;;;2.65;1.17;;;;;;;8.10;100.00;101799.59;2105612;28;20139;-81
2023/02/03 00:18:12;;;;;;;5.78;2.45;;;;;;;8.12;100.00;101796.19;2103036;28;20093;-81
2023/02/03 00:19:36;;;;;;;4.65;1.95;;;;;;;8.17;100.00;101802.53;2102014;28;20044;-81
2023/02/03 00:20:58;;;;;;;6.05;4.18;;;;;;;8.20;100.00;101799.16;2103059;28;20110;-82
2023/02/03 00:22:19;;;;;;;5.88;3.20;;;;;;;8.17;100.00;101797.28;2098665;28;20692;-80
2023/02/03 00:23:42;;;;;;;3.00;1.83;;;;;;;8.14;100.00;101798.91;2102987;28;20056;-80
2023/02/03 00:25:05;;;;;;;5.00;2.60;;;;;;;8.12;100.00;101798.84;2100218;28;20056;-80
2023/02/03 00:26:28;;;;;;;2.97;1.80;;;;;;;8.10;100.00;101799.59;2101988;28;20146;-81
2023/02/03 00:27:50;;;;;;;3.53;2.00;;;;;;;8.08;100.00;101796.00;2092299;28;20053;-80
2023/02/03 00:29:13;;;;;;;6.00;1.90;;;;;;;8.08;100.00;101796.00;2107093;28;20047;-79
2023/02/03 00:30:36;;;;;;;4.72;2.33;;;;;;;8.06;100.00;101797.69;2110432;28;20079;-80
2023/02/03 00:32:00;;;;;;;2.90;1.35;;;;;;;8.01;100.00;101789.56;2103491;28;20048;-81
2023/02/03 00:33:21;;;;;;;3.30;1.75;;;;;;;7.97;100.00;101788.56;2111540;28;20065;-80
2023/02/03 00:34:45;;;;;;;5.47;2.80;;;;;;;7.96;100.00;101801.63;2108762;28;20040;-80
2023/02/03 00:36:08;;;;;;;4.43;2.42;;;;;;;7.96;100.00;101796.38;2103386;28;20052;-80
2023/02/03 00:37:31;;;;;;;6.07;3.13;;;;;;;7.97;100.00;101800.81;2092154;28;20139;-81
2023/02/03 00:38:53;;;;;;;5.53;2.55;;;;;;;7.97;100.00;101803.44;2100668;28;20036;-81
2023/02/03 00:40:15;;;;;;;3.40;1.83;;;;;;;7.96;100.00;101799.91;2095013;28;20058;-81
2023/02/03 00:41:37;;;;;;;3.05;1.63;;;;;;;7.93;100.00;101810.31;2089302;28;20049;-81
2023/02/03 00:42:59;;;;;;;2.33;1.15;;;;;;;7.92;100.00;101804.97;2097402;28;20049;-81
2023/02/03 00:44:22;;;;;;;2.53;1.30;;;;;;;7.91;100.00;101801.44;2102554;28;20262;-81
2023/02/03 00:45:43;;;;;;;3.15;1.33;;;;;;;7.88;100.00;101805.66;2095004;28;20053;-81
2023/02/03 00:47:05;;;;;;;4.07;1.55;;;;;;;7.86;100.00;101809.97;2100042;28;20173;-82
2023/02/03 00:48:26;;;;;;;2.17;1.40;;;;;;;7.86;100.00;101810.88;2103010;28;20048;-81
2023/02/03 00:49:50;;;;;;;2.65;1.50;;;;;;;7.85;100.00;101813.44;2093433;28;20565;-80
2023/02/03 00:51:12;;;;;;;1.90;1.20;;;;;;;7.82;100.00;101803.66;2094895;28;20466;-81
2023/02/03 00:52:34;;;;;;;5.43;1.23;;;;;;;7.80;100.00;101810.59;2086505;28;20064;-81
2023/02/03 00:53:57;;;;;;;2.45;1.15;;;;;;;7.78;100.00;101817.53;2100264;28;20555;-81
2023/02/03 00:55:19;;;;;;;2.38;1.10;;;;;;;7.74;100.00;101807.72;2097481;28;20063;-80
2023/02/03 00:56:43;;;;;;;3.65;1.33;;;;;;;7.71;100.00;101817.19;2094766;28;20043;-81
2023/02/03 00:58:07;;;;;;;2.47;1.40;;;;;;;7.66;100.00;101811.72;2094809;28;20056;-82
2023/02/03 00:59:28;;;;;;;4.65;1.25;;;;;;;7.66;100.00;101809.09;2094670;28;20057;-81
2023/02/03 01:00:50;;;;;;;3.40;1.20;;;;;;;7.62;100.00;101807.16;2094616;28;20043;-81
2023/02/03 01:02:15;;;;;;;2.22;1.27;;;;;;;7.60;100.00;101803.56;2110193;28;20039;-81
2023/02/03 01:03:37;;;;;;;3.03;1.30;;;;;;;7.58;100.00;101803.50;2097451;28;20059;-81
2023/02/03 01:05:00;;;;;;;2.55;1.42;;;;;;;7.58;100.00;101802.59;2098395;28;20098;-81
2023/02/03 01:06:23;;;;;;;2.72;1.50;;;;;;;7.54;100.00;101796.31;2103119;28;20052;-81
2023/02/03 01:07:44;;;;;;;1.77;1.20;;;;;;;7.55;100.00;101800.72;2111582;28;20592;-81
2023/02/03 01:09:07;;;;;;;2.50;1.33;;;;;;;7.54;100.00;101800.69;2105338;28;20077;-78
2023/02/03 01:10:29;;;;;;;2.45;1.30;;;;;;;7.55;100.00;101799.81;2094610;28;20051;-81
2023/02/03 01:11:51;;;;;;;;;;;;;;;7.48;100.00;101795.16;2102595;28;20052;-80
2023/02/03 01:13:13;;;;;;;3.42;1.55;;;;;;;7.47;100.00;101782.84;2102883;28;19923;-81
2023/02/03 01:14:34;;;;;;;3.50;1.30;;;;;;;7.49;100.00;101791.66;2102960;28;20048;-81
2023/02/03 01:15:59;;;;;;;4.40;1.52;;;;;;;7.48;100.00;101785.50;2086765;28;20045;-81
2023/02/03 01:17:21;;;;;;;2.92;1.88;;;;;;;7.46;100.00;101781.94;2091764;28;20071;-81
2023/02/03 01:18:44;;;;;;;5.70;3.33;;;;;;;7.45;100.00;101779.25;2094556;28;20056;-81
2023/02/03 01:20:11;;;;;;;6.97;5.22;;;;;;;7.46;100.00;101783.69;2094692;28;20393;-81
2023/02/03 01:21:35;;;;;;;7.82;4.43;;;;;;;7.46;100.00;101776.69;2105614;28;20172;-81
2023/02/03 01:22:57;;;;;;;6.35;3.67;;;;;;;7.46;100.00;101781.94;2096980;28;20044;-81
2023/02/03 01:24:22;;;;;;;4.70;2.42;;;;;;;7.41;100.00;101782.56;2088208;28;20128;-81
2023/02/03 01:25:45;;;;;;;4.28;2.00;;;;;;;7.36;100.00;101781.44;2080928;28;20106;-81
2023/02/03 01:27:07;;;;;;;1.98;1.13;;;;;;;7.37;100.00;101776.28;2088449;28;20059;-81
2023/02/03 01:28:29;;;;;;;4.90;1.75;;;;;;;7.41;100.00;101769.44;2094385;28;20731;-81
2023/02/03 01:29:51;;;;;;;8.20;7.20;;;;;;;7.45;100.00;101774.00;2086094;28;20033;-81
2023/02/03 01:31:16;;;;;;;6.53;5.32;;;;;;;7.48;100.00;101776.78;2094587;28;20052;-81
2023/02/03 01:32:38;;;;;;;4.85;2.03;;;;;;;7.47;100.00;101773.25;2094845;28;20530;-81
2023/02/03 01:34:00;;;;;;;4.72;2.70;;;;;;;7.48;100.00;101774.16;2093985;28;20048;-81
2023/02/03 01:35:23;;;;;;;;;;;;;;;7.43;100.00;101765.13;2098975;28;20064;-82
2023/02/03 01:36:46;;;;;;;5.18;3.00;;;;;;;7.51;100.00;101780.41;2111150;28;19920;-82
2023/02/03 01:38:07;;;;;;;3.97;2.67;;;;;;;7.53;100.00;101777.88;2110911;28;20047;-81
2023/02/03 01:39:29;;;;;;;4.97;2.45;;;;;;;7.53;100.00;101775.25;2102574;28;20058;-81
2023/02/03 01:40:51;;;;;;;4.15;2.22;;;;;;;7.54;100.00;101775.31;2102485;28;20036;-81
2023/02/03 01:42:15;;;;;;;2.65;1.70;;;;;;;7.53;100.00;101769.97;2102762;28;20063;-82
2023/02/03 01:43:40;;;;;;;2.25;1.50;;;;;;;7.52;100.00;101762.94;2094727;28;20150;-82
2023/02/03 01:45:02;;;;;;;2.85;1.73;;;;;;;7.51;100.00;101769.00;2100812;28;20048;-82
2023/02/03 01:46:31;;;;;;;3.28;1.40;;;;;;;7.51;100.00;101769.00;2099903;28;20056;-81
2023/02/03 01:47:58;;;;;;;3.75;1.50;;;;;;;7.50;100.00;101775.09;2101852;28;20125;-82
2023/02/03 01:49:25;;;;;;;3.45;1.83;;;;;;;7.49;100.00;101768.03;2109488;28;20137;-82
2023/02/03 01:50:48;;;;;;;2.85;1.50;;;;;;;7.51;100.00;101763.75;2100441;28;20048;-83
2023/02/03 01:52:10;;;;;;;2.60;1.30;;;;;;;7.52;100.00;101765.56;2102486;28;20036;-81
2023/02/03 01:53:34;;;;;;;3.00;1.40;;;;;;;7.51;100.00;101762.03;2102620;28;20056;-81
2023/02/03 01:54:58;;;;;;;4.57;1.33;;;;;;;7.53;100.00;101764.72;2101771;28;20040;-82
2023/02/03 01:56:20;;;;;;;4.10;1.33;;;;;;;7.51;100.00;101764.66;2103436;28;20119;-82
2023/02/03 01:57:47;;;;;;;2.15;1.20;;;;;;;7.50;100.00;101767.19;2103037;28;20051;-82
2023/02/03 01:59:09;;;;;;;2.50;1.30;;;;;;;7.48;100.00;101764.50;2101244;28;20048;-82
2023/02/03 02:00:31;;;;;;;3.17;1.35;;;;;;;7.45;100.00;101764.38;2108649;28;20071;-82
2023/02/03 02:01:53;;;;;;;2.97;1.40;;;;;;;7.45;100.00;101764.38;2098143;28;20047;-82
2023/02/03 02:03:18;;;;;;;5.90;1.63;;;;;;;7.45;100.00;101755.59;2108570;28;20108;-82
2023/02/03 02:04:50;;;;;;;5.00;1.20;;;;;;;7.42;100.00;101753.72;2104381;28;20048;-82
2023/02/03 02:06:14;;;;;;;3.80;1.40;;;;;;;7.42;100.00;101748.47;2103985;28;20132;-82
2023/02/03 02:07:38;;;;;;;3.88;1.30;;;;;;;7.43;100.00;101752.00;2096908;28;20649;-83
2023/02/03 02:09:03;;;;;;;4.65;1.30;;;;;;;7.42;100.00;101748.47;2086082;28;20068;-82
2023/02/03 02:10:24;;;;;;;1.92;1.23;;;;;;;7.42;100.00;101751.09;2088735;28;20061;-82
2023/02/03 02:11:47;;;;;;;4.75;1.60;;;;;;;7.44;100.00;101751.19;2099924;28;20040;-82
2023/02/03 02:13:09;;;;;;;4.80;1.40;;;;;;;7.44;100.00;101746.81;2102846;28;20060;-82
2023/02/03 02:14:32;;;;;;;2.75;1.48;;;;;;;7.46;100.00;101753.06;2097629;28;20070;-82
2023/02/03 02:16:00;;;;;;;2.78;1.48;;;;;;;7.45;100.00;101745.09;2088416;28;20049;-82
2023/02/03 02:18:07;;;;;;;3.63;1.70;;;;;;;7.42;100.00;101739.69;2103268;28;20059;-82
2023/02/03 02:20:00;;;;;;;4.72;1.90;;;;;;;7.40;100.00;101738.75;2056932;28;20050;-82
2023/02/03 02:21:56;;;;;;;11.35;7.28;;;;;;;7.35;100.00;101745.53;2088044;28;20083;-82
2023/02/03 02:23:51;;;;;;;39.63;24.50;;;;;;;7.30;100.00;101733.91;2106888;28;20055;-83
2023/02/03 02:25:50;;;;;;;5.00;2.72;;;;;;;7.27;100.00;101732.06;2114369;28;20059;-82
2023/02/03 02:27:28;;;;;;;2.72;1.52;;;;;;;7.29;100.00;101730.38;2106671;28;20060;-81
2023/02/03 02:29:12;;;;;;;2.38;1.45;;;;;;;7.30;100.00;101726.03;2106070;28;20047;-82
2023/02/03 02:30:48;;;;;;;2.90;1.35;;;;;;;7.30;100.00;101719.03;2098546;28;20495;-82
2023/02/03 02:32:31;;;;;;;4.18;1.90;;;;;;;7.31;100.00;101717.31;2113511;28;20126;-82
2023/02/03 02:33:59;;;;;;;5.75;2.90;;;;;;;7.22;100.00;101713.44;2090448;28;20053;-83
2023/02/03 02:35:35;;;;;;;2.40;1.30;;;;;;;7.09;100.00;101718.09;2096257;28;20125;-82
2023/02/03 02:37:06;;;;;;;4.13;2.17;;;;;;;6.97;100.00;101713.19;2097337;28;20036;-81
2023/02/03 02:38:45;;;;;;;5.38;2.50;;;;;;;6.89;100.00;101711.06;2088685;28;20078;-82
2023/02/03 02:40:20;;;;;;;8.98;4.43;;;;;;;6.80;100.00;101717.69;2097726;28;20111;-82
2023/02/03 02:41:49;;;;;;;18.83;12.43;;;;;;;6.72;100.00;101713.81;2097296;28;20359;-82
2023/02/03 02:43:18;;;;;;;18.30;16.30;;;;;;;6.66;100.00;101713.53;2097892;28;20048;-82
2023/02/03 02:44:49;;;;;;;22.50;20.05;;;;;;;6.64;100.00;101709.91;2105235;28;20539;-82
2023/02/03 02:46:14;;;;;;;21.67;19.17;;;;;;;6.68;100.00;101713.59;2105365;28;20052;-82
2023/02/03 02:47:39;;;;;;;21.77;18.58;;;;;;;6.76;100.00;101712.25;2116127;27;20066;-82
2023/02/03 02:49:06;;;;;;;23.80;21.33;;;;;;;6.80;100.00;101711.53;2098333;28;20086;-82
2023/02/03 02:50:50;;;;;;;16.40;14.73;;;;;;;6.83;100.00;101716.03;2096633;28;20048;-82
2023/02/03 02:52:19;;;;;;;9.05;5.50;;;;;;;6.87;100.00;101705.75;2098420;28;20109;-82
2023/02/03 02:53:46;;;;;;;6.00;3.35;;;;;;;6.93;100.00;101705.13;2096112;28;20075;-83
2023/02/03 02:55:14;;;;;;;4.88;2.80;;;;;;;7.01;100.00;101704.66;2090866;28;20056;-83
2023/02/03 02:56:39;;;;;;;4.10;2.38;;;;;;;7.14;100.00;101714.88;2086581;28;20067;-82
2023/02/03 02:58:06;;;;;;;8.00;4.30;;;;;;;7.28;100.00;101706.69;2101595;28;20046;-82
2023/02/03 02:59:28;;;;;;;12.48;9.65;;;;;;;7.32;100.00;101714.78;2101760;28;20036;-83
2023/02/03 03:00:50;;;;;;;20.52;17.30;;;;;;;7.34;100.00;101712.22;2104207;28;20036;-82
2023/02/03 03:02:13;;;;;;;25.77;20.40;;;;;;;7.37;100.00;101714.97;2104061;28;20539;-82
2023/02/03 03:03:39;;;;;;;12.05;9.23;;;;;;;7.37;100.00;101709.72;2090673;28;20060;-82
2023/02/03 03:05:05;;;;;;;7.47;5.93;;;;;;;7.32;100.00;101709.53;2094207;28;20044;-82
2023/02/03 03:06:35;;;;;;;20.10;18.05;;;;;;;7.28;100.00;101711.97;2106245;28;20050;-82
2023/02/03 03:08:01;;;;;;;24.33;22.00;;;;;;;7.27;100.00;101710.16;2106595;28;20558;-82
2023/02/03 03:09:28;;;;;;;5.97;2.58;;;;;;;7.27;100.00;101712.78;2104342;28;20052;-82
2023/02/03 03:10:52;;;;;;;4.30;2.42;;;;;;;7.28;100.00;101711.97;2102449;28;20040;-82
2023/02/03 03:12:19;;;;;;;5.05;2.05;;;;;;;7.28;100.00;101704.06;2092924;28;20044;-82
2023/02/03 03:13:44;;;;;;;3.88;2.33;;;;;;;7.27;100.00;101707.53;2101374;28;20069;-82
2023/02/03 03:15:10;;;;;;;2.72;1.65;;;;;;;7.28;100.00;101704.06;2104525;28;20050;-83
2023/02/03 03:16:35;;;;;;;3.17;1.75;;;;;;;7.28;100.00;101701.44;2096037;28;20457;-82
2023/02/03 03:18:03;;;;;;;3.97;1.80;;;;;;;7.29;100.00;101705.84;2108850;28;20035;-82
2023/02/03 03:19:32;;;;;;;2.83;1.55;;;;;;;7.27;100.00;101704.91;2105443;28;20056;-82
2023/02/03 03:21:04;;;;;;;5.60;2.72;;;;;;;7.24;100.00;101696.88;2104824;28;20059;-83
2023/02/03 03:22:32;;;;;;;8.23;6.00;;;;;;;7.20;100.00;101702.00;2102871;28;20126;-82
2023/02/03 03:23:57;;;;;;;4.05;3.03;;;;;;;7.19;100.00;101699.31;2103757;28;20062;-82
2023/02/03 03:25:23;;;;;;;3.25;1.70;;;;;;;7.14;100.00;101698.22;2098292;28;20037;-82
2023/02/03 03:26:51;;;;;;;3.70;1.20;;;;;;;7.10;100.00;101702.41;2104322;28;20059;-82
2023/02/03 03:28:22;;;;;;;1.60;1.27;;;;;;;7.07;100.00;101707.53;2103803;28;20100;-82
2023/02/03 03:29:50;;;;;;;1.40;0.77;;;;;;;7.04;100.00;101701.25;2103307;28;20075;-81
2023/02/03 03:31:11;;;;;;;1.77;1.02;;;;;;;7.00;100.00;101696.69;2104406;28;20106;-82
2023/02/03 03:32:34;;;;;;;2.33;1.38;;;;;;;6.97;100.00;101702.69;2100896;28;20087;-82
2023/02/03 03:33:57;;;;;;;35.25;31.65;;;;;;;6.99;100.00;101701.03;2103263;28;20460;-82
2023/02/03 03:35:19;;;;;;;7.85;4.10;;;;;;;7.09;100.00;101702.34;2103009;28;20044;-84
2023/02/03 03:36:46;;;;;;;4.68;1.58;;;;;;;7.15;100.00;101706.13;2112316;28;20442;-82
2023/02/03 03:38:15;;;;;;;4.00;1.75;;;;;;;7.18;100.00;101697.50;2098162;28;20044;-82
2023/02/03 03:39:46;;;;;;;3.47;1.77;;;;;;;7.18;100.00;101701.03;2101360;28;20396;-85
2023/02/03 03:41:13;;;;;;;3.88;1.30;;;;;;;7.18;100.00;101695.78;2110818;28;20046;-84
2023/02/03 03:42:41;;;;;;;3.30;1.55;;;;;;;7.22;100.00;101701.19;2096405;28;20055;-84
2023/02/03 03:44:05;;;;;;;2.00;1.60;;;;;;;7.20;100.00;101699.38;2100645;28;20066;-82
2023/02/03 03:45:33;;;;;;;1.95;1.50;;;;;;;7.22;100.00;101706.44;2102391;28;20511;-82
2023/02/03 03:47:04;;;;;;;4.63;2.63;;;;;;;7.17;100.00;101699.22;2105162;28;20059;-82
2023/02/03 03:48:31;;;;;;;8.27;4.07;;;;;;;7.13;100.00;101702.56;2105116;28;20044;-83
2023/02/03 03:49:55;;;;;;;15.07;10.13;;;;;;;7.11;100.00;101698.06;2104237;28;20098;-82
2023/02/03 03:51:23;;;;;;;13.50;10.55;;;;;;;7.13;100.00;101701.66;2095681;28;20044;-82
2023/02/03 03:52:48;;;;;;;7.68;4.35;;;;;;;7.14;100.00;101701.75;2100473;28;20109;-82
2023/02/03 03:54:14;;;;;;;7.05;2.80;;;;;;;7.17;100.00;101695.72;2103635;28;20577;-82
2023/02/03 03:55:38;;;;;;;4.53;2.53;;;;;;;7.20;100.00;101699.38;2100624;28;20048;-80
2023/02/03 03:57:06;;;;;;;7.95;4.82;;;;;;;7.22;100.00;101706.44;2110941;28;20042;-82
2023/02/03 03:58:31;;;;;;;12.27;8.65;;;;;;;7.17;100.00;101700.97;2103912;28;20055;-83
2023/02/03 03:59:54;;;;;;;7.80;4.05;;;;;;;7.18;100.00;101701.03;2102105;28;20058;-82
2023/02/03 04:01:17;;;;;;;5.82;3.25;;;;;;;7.21;100.00;101700.28;2095360;28;20060;-82
2023/02/03 04:02:41;;;;;;;6.28;2.80;;;;;;;7.24;100.00;101703.03;2103076;28;20044;-82
2023/02/03 04:04:08;;;;;;;4.60;2.67;;;;;;;7.25;100.00;101696.03;2099995;28;20116;-82
2023/02/03 04:05:32;;;;;;;7.65;3.95;;;;;;;7.25;100.00;101703.94;2104551;28;20051;-82
2023/02/03 04:06:56;;;;;;;3.88;2.42;;;;;;;7.25;100.00;101688.16;2103021;28;20044;-83
2023/02/03 04:08:17;;;;;;;7.05;4.05;;;;;;;7.27;100.00;101692.66;2102524;28;20048;-82
2023/02/03 04:09:41;;;;;;;4.82;3.78;;;;;;;7.29;100.00;101695.34;2103430;28;20455;-82
2023/02/03 04:11:02;;;;;;;5.60;3.15;;;;;;;7.29;100.00;101703.22;2111940;28;20050;-83
2023/02/03 04:12:25;;;;;;;9.50;5.50;;;;;;;7.28;100.00;101699.72;2105421;28;20052;-83
2023/02/03 04:13:47;;;;;;;15.45;11.70;;;;;;;7.28;100.00;101694.47;2103437;28;20036;-84
2023/02/03 04:15:10;;;;;;;24.02;17.50;;;;;;;7.31;100.00;101698.94;2094953;28;20393;-82
2023/02/03 04:16:32;;;;;;;9.43;5.50;;;;;;;7.33;100.00;101695.56;2101877;28;20044;-83
2023/02/03 04:17:55;;;;;;;7.72;4.13;;;;;;;7.38;100.00;101693.13;2102490;28;20181;-82
2023/02/03 04:19:17;;;;;;;7.13;3.92;;;;;;;7.45;100.00;101700.44;2109413;28;20081;-83
2023/02/03 04:20:39;;;;;;;7.47;4.75;;;;;;;7.50;100.00;101693.66;2097607;28;20079;-82
2023/02/03 04:22:02;;;;;;;11.63;7.07;;;;;;;7.54;100.00;101693.88;2101625;28;20040;-82
2023/02/03 04:23:24;;;;;;;16.20;12.57;;;;;;;7.58;100.00;101687.00;2101924;28;20049;-82
2023/02/03 04:24:45;;;;;;;14.20;11.25;;;;;;;7.65;100.00;101688.16;2103180;28;20078;-82
2023/02/03 04:26:08;;;;;;;10.02;8.20;;;;;;;7.70;100.00;101697.13;2103344;28;20043;-82
2023/02/03 04:27:30;;;;;;;9.57;6.30;;;;;;;7.74;100.00;101693.81;2100332;28;20039;-82
2023/02/03 04:28:51;;;;;;;9.82;6.50;;;;;;;7.77;100.00;101693.91;2103142;28;20074;-83
2023/02/03 04:30:17;;;;;;;12.25;8.23;;;;;;;7.78;100.00;101704.50;2103463;28;20539;-81
2023/02/03 04:31:39;;;;;;;11.15;8.07;;;;;;;7.74;100.00;101702.59;2103372;28;20044;-81
2023/02/03 04:33:01;;;;;;;6.80;5.13;;;;;;;7.66;100.00;101693.47;2106907;28;20067;-82
2023/02/03 04:34:23;;;;;;;7.43;4.28;;;;;;;7.60;100.00;101696.75;2099890;28;20066;-83
2023/02/03 04:35:45;;;;;;;21.42;19.45;;;;;;;7.58;100.00;101697.50;2111694;28;20040;-83
2023/02/03 04:37:08;;;;;;;12.32;9.90;;;;;;;7.56;100.00;101699.16;2098011;28;20048;-83
2023/02/03 04:38:30;;;;;;;12.98;10.10;;;;;;;7.54;100.00;101698.22;2100731;28;20040;-83
2023/02/03 04:39:52;;;;;;;11.48;9.10;;;;;;;7.52;100.00;101697.25;2103273;28;20055;-82
2023/02/03 04:41:14;;;;;;;11.77;9.32;;;;;;;7.50;100.00;101688.41;2103347;28;20044;-82
2023/02/03 04:42:36;;;;;;;12.50;9.48;;;;;;;7.47;100.00;101690.91;2102417;28;20052;-83
2023/02/03 04:43:58;;;;;;;10.27;8.65;;;;;;;7.44;100.00;101694.28;2103495;28;20040;-82
2023/02/03 04:45:21;;;;;;;14.52;10.30;;;;;;;7.44;100.00;101701.28;2096413;28;20098;-83
2023/02/03 04:46:42;;;;;;;18.33;12.13;;;;;;;7.45;100.00;101695.19;2102977;28;20051;-83
2023/02/03 04:48:04;;;;;;;20.90;14.88;;;;;;;7.46;100.00;101704.88;2103120;28;20058;-83
2023/02/03 04:49:26;;;;;;;30.27;22.73;;;;;;;7.48;100.00;101700.59;2094766;28;20142;-83
2023/02/03 04:50:48;;;;;;;33.33;29.60;;;;;;;7.48;100.00;101696.19;2102682;28;20036;-83
2023/02/03 04:52:12;;;;;;;31.27;27.15;;;;;;;7.49;100.00;101703.25;2103192;28;20109;-82
2023/02/03 04:53:34;;;;;;;33.22;29.65;;;;;;;7.49;100.00;101704.97;2111970;28;20519;-82
2023/02/03 04:54:56;;;;;;;24.75;21.42;;;;;;;7.48;100.00;101697.97;2114149;28;20406;-83
2023/02/03 04:56:17;;;;;;;33.47;29.83;;;;;;;7.46;100.00;101702.25;2111470;28;20048;-83
2023/02/03 04:57:39;;;;;;;32.83;28.83;;;;;;;7.46;100.00;101707.50;2114236;28;20050;-82
2023/02/03 04:59:02;;;;;;;34.50;29.92;;;;;;;7.44;100.00;101699.53;2111504;28;20040;-83
2023/02/03 05:00:25;;;;;;;31.10;26.42;;;;;;;7.43;100.00;101704.72;2111038;28;20049;-83
2023/02/03 05:01:47;;;;;;;26.70;21.48;;;;;;;7.42;100.00;101716.06;2111599;28;20051;-83
2023/02/03 05:03:09;;;;;;;24.38;19.42;;;;;;;7.41;100.00;101714.28;2097799;28;20052;-83
2023/02/03 05:04:32;;;;;;;37.47;32.80;;;;;;;7.41;100.00;101709.94;2097066;28;20061;-83
2023/02/03 05:05:55;;;;;;;70.50;58.92;;;;;;;7.41;100.00;101711.66;2094815;28;20036;-83
2023/02/03 05:07:19;;;;;;;63.20;52.53;;;;;;;7.40;100.00;101723.91;2096792;28;20071;-84
2023/02/03 05:08:40;;;;;;;67.45;57.70;;;;;;;7.38;100.00;101712.41;2102064;28;20051;-83
2023/02/03 05:10:03;;;;;;;53.55;44.75;;;;;;;7.35;100.00;101719.28;2094244;28;20086;-83
2023/02/03 05:11:25;;;;;;;120.57;97.57;;;;;;;7.33;100.00;101716.56;2094445;28;20578;-82
2023/02/03 05:12:46;;;;;;;114.25;97.05;;;;;;;7.33;100.00;101711.31;2102957;28;20043;-83
2023/02/03 05:14:09;;;;;;;97.57;80.82;;;;;;;7.34;100.00;101717.47;2098289;28;20052;-83
2023/02/03 05:15:30;;;;;;;111.18;94.30;;;;;;;7.33;100.00;101718.28;2094618;28;20108;-82
2023/02/03 05:16:52;;;;;;;102.20;83.78;;;;;;;7.32;100.00;101714.78;2101648;28;20428;-83
2023/02/03 05:18:13;;;;;;;120.65;104.13;;;;;;;7.32;100.00;101719.13;2100929;28;20044;-83
2023/02/03 05:19:36;;;;;;;152.25;126.38;;;;;;;7.31;100.00;101722.56;2107583;28;20507;-82
2023/02/03 05:20:58;;;;;;;154.35;133.05;;;;;;;7.32;100.00;101717.41;2105175;28;20050;-82
2023/02/03 05:22:21;;;;;;;171.88;145.50;;;;;;;7.35;100.00;101719.28;2102665;28;20058;-83
2023/02/03 05:23:43;;;;;;;130.65;111.03;;;;;;;7.36;100.00;101721.03;2102694;28;20097;-82
2023/02/03 05:25:05;;;;;;;134.57;111.25;;;;;;;7.39;100.00;101722.09;2102348;28;20048;-82
2023/02/03 05:26:29;;;;;;;122.38;105.22;;;;;;;7.46;100.00;101731.13;2094775;28;20049;-83
2023/02/03 05:27:51;;;;;;;126.82;106.97;;;;;;;7.49;100.00;101726.91;2099732;28;20040;-80
2023/02/03 05:29:13;;;;;;;118.88;103.68;;;;;;;7.52;100.00;101723.53;2101577;28;20660;-83
2023/02/03 05:30:35;;;;;;;125.35;106.88;;;;;;;7.53;100.00;101731.47;2101480;28;20070;-83
2023/02/03 05:31:58;;;;;;;125.97;107.22;;;;;;;7.55;100.00;101727.16;2099701;28;20055;-83
2023/02/03 05:33:19;;;;;;;74.65;54.92;;;;;;;7.53;100.00;101733.19;2094251;28;20543;-83
2023/02/03 05:34:42;;;;;;;49.50;34.85;;;;;;;7.47;100.00;101730.31;2098748;28;20047;-83
2023/02/03 05:36:04;;;;;;;34.05;20.63;;;;;;;7.42;100.00;101731.81;2102168;28;20051;-83
2023/02/03 05:37:27;;;;;;;27.50;16.63;;;;;;;7.35;100.00;101730.66;2102891;28;20067;-82
2023/02/03 05:38:49;;;;;;;87.13;47.95;;;;;;;7.35;100.00;101738.53;2102032;28;20066;-83
2023/02/03 05:41:51;;;;;;;69.32;54.38;;;;;;;7.37;100.00;101735.97;2097611;28;20052;-83
2023/02/03 05:43:14;;;;;;;64.80;49.33;;;;;;;7.41;100.00;101745.81;2101456;28;20650;-83
2023/02/03 05:44:36;;;;;;;68.47;54.72;;;;;;;7.43;100.00;101739.78;2101805;28;20102;-83
2023/02/03 05:45:59;;;;;;;63.40;51.13;;;;;;;7.45;100.00;101746.00;2102634;28;20051;-83
2023/02/03 05:47:22;;;;;;;60.03;48.95;;;;;;;7.46;100.00;101739.03;2086054;28;20401;-82
2023/02/03 05:48:44;;;;;;;71.78;60.67;;;;;;;7.48;100.00;101747.88;2086040;28;20041;-82
2023/02/03 05:50:07;;;;;;;66.68;54.17;;;;;;;7.49;100.00;101740.03;2086012;28;20115;-83
2023/02/03 05:51:29;;;;;;;54.38;46.35;;;;;;;7.50;100.00;101743.56;2085511;28;20516;-83
2023/02/03 05:52:51;;;;;;;24.20;19.65;;;;;;;7.45;100.00;101739.84;2085875;28;20533;-83
2023/02/03 05:54:14;;;;;;;25.63;17.60;;;;;;;7.43;100.00;101741.50;2087821;28;20068;-83
2023/02/03 05:55:36;;;;;;;18.13;9.90;;;;;;;7.42;100.00;101745.84;2088955;28;20056;-82
2023/02/03 05:56:59;;;;;;;16.83;12.70;;;;;;;7.41;100.00;101737.94;2094140;28;20044;-83
2023/02/03 05:58:20;;;;;;;18.33;10.82;;;;;;;7.42;100.00;101750.19;2094419;28;20051;-85
2023/02/03 05:59:42;;;;;;;20.95;12.20;;;;;;;7.45;100.00;101753.88;2094123;28;20056;-81
2023/02/03 06:01:05;;;;;;;21.50;14.68;;;;;;;7.53;100.00;101749.88;2094331;28;20146;-82
2023/02/03 06:02:27;;;;;;;24.17;16.42;;;;;;;7.66;100.00;101748.66;2080851;28;20509;-81
2023/02/03 06:03:49;;;;;;;24.17;17.02;;;;;;;7.82;100.00;101755.44;2077584;28;20540;-82
2023/02/03 06:05:10;;;;;;;22.83;15.82;;;;;;;7.98;100.00;101750.94;2084202;28;20045;-82
2023/02/03 06:06:33;;;;;;;20.27;18.08;;;;;;;8.16;100.00;101755.13;2084514;28;20061;-82
2023/02/03 06:07:57;;;;;;;25.02;18.40;;;;;;;8.34;100.00;101759.44;2080283;28;20072;-82
2023/02/03 06:09:19;;;;;;;22.33;19.90;;;;;;;8.50;100.00;101757.44;2091532;28;20039;-82
2023/02/03 06:10:42;;;;;;;22.85;19.98;;;;;;;8.63;100.00;101754.47;2089994;28;20041;-83
2023/02/03 06:12:04;;;;;;;23.85;20.40;;;;;;;8.76;100.00;101748.84;2085974;28;20040;-83
2023/02/03 06:13:27;;;;;;;25.30;22.52;;;;;;;8.89;100.00;101751.09;2085153;28;20045;-83
2023/02/03 06:14:50;;;;;;;22.92;20.42;;;;;;;9.02;100.00;101747.19;2077685;28;20111;-83
2023/02/03 06:16:12;;;;;;;23.05;19.63;;;;;;;9.15;100.00;101757.34;2078212;28;20060;-82
2023/02/03 06:17:34;;;;;;;18.20;15.55;;;;;;;9.27;100.00;101760.44;2077971;28;20468;-82
2023/02/03 06:18:59;;;;;;;15.27;12.05;;;;;;;9.39;100.00;101754.69;2077862;28;20126;-82
2023/02/03 06:20:21;;;;;;;13.02;10.50;;;;;;;9.55;100.00;101751.78;2086122;28;20054;-82
2023/02/03 06:21:44;;;;;;;17.77;13.43;;;;;;;9.69;100.00;101752.28;2080048;28;20076;-82
2023/02/03 06:23:07;;;;;;;16.40;13.55;;;;;;;9.81;100.00;101750.97;2077904;28;20115;-82
2023/02/03 06:24:30;;;;;;;17.23;13.18;;;;;;;9.94;100.00;101755.81;2082371;28;20052;-83
2023/02/03 06:25:52;;;;;;;18.52;15.85;;;;;;;10.10;100.00;101753.69;2080025;28;20042;-82
2023/02/03 06:27:15;;;;;;;20.00;15.77;;;;;;;10.25;100.00;101748.94;2093051;28;20390;-83
2023/02/03 06:28:37;;;;;;;17.80;13.57;;;;;;;10.39;100.00;101751.19;2084806;28;20894;-83
2023/02/03 06:29:59;;;;;;;12.93;10.43;;;;;;;10.54;100.00;101748.13;2091925;28;20108;-83
2023/02/03 06:31:21;;;;;;;14.95;11.60;;;;;;;10.67;100.00;101749.41;2088654;28;20124;-84